Chappell Hill, Texas
Current Conditions -  °F | °C
As of 11:55 PM on Tuesday 21 Oct 2014 (Local Time) from K11R Reporting Station
Clear Clear  
Wind Chill: 66°   Ceiling: Unl
Heat Index: 66°   Visibility: 10mi
Dew Point: 59°   Wind: 0mph
Humidity: 79%   Direction: NA
Pressure: 30.05"   Gusts: NA
Location:  30.14°N, 96.26°W
Report Text: K11R 220455Z AUTO 00000KT 10SM CLR 19/15 A3005 RMK AO2 T01890151
Loading
Personal Weather Stations






























Interactive Weather Map
Tropical Storm Tracking
New forecast layout! Learn more

10-Day Weather Forecast

Advertisements
Track Severe Weather on mobile